createdAt,value
2023-02-09T00:01:29.089Z,10.93
2023-02-09T00:03:56.183Z,15.52
2023-02-09T00:06:24.365Z,12.60
2023-02-09T00:08:51.338Z,13.75
2023-02-09T00:11:48.369Z,10.73
2023-02-09T00:14:16.911Z,13.00
2023-02-09T00:16:43.840Z,12.75
2023-02-09T00:19:12.034Z,14.80
2023-02-09T00:21:40.199Z,12.65
2023-02-09T00:24:08.003Z,13.73
2023-02-09T00:26:34.616Z,12.52
2023-02-09T00:29:01.301Z,12.48
2023-02-09T00:31:28.181Z,11.98
2023-02-09T00:33:54.950Z,12.23
2023-02-09T00:36:21.757Z,14.85
2023-02-09T00:38:48.469Z,10.25
2023-02-09T00:41:16.539Z,14.18
2023-02-09T00:43:43.203Z,11.00
2023-02-09T00:46:10.160Z,13.10
2023-02-09T00:48:37.117Z,13.23
2023-02-09T00:51:04.157Z,11.38
2023-02-09T00:53:30.946Z,11.88
2023-02-09T00:55:57.622Z,12.88
2023-02-09T00:58:24.362Z,9.80
2023-02-09T01:00:51.032Z,11.57
2023-02-09T01:03:17.800Z,12.85
2023-02-09T01:05:44.540Z,12.88
2023-02-09T01:08:11.648Z,13.10
2023-02-09T01:10:39.407Z,14.45
2023-02-09T01:13:06.904Z,14.77
2023-02-09T01:15:34.076Z,11.80
2023-02-09T01:18:00.857Z,10.25
2023-02-09T01:20:28.305Z,12.55
2023-02-09T01:22:55.044Z,10.00
2023-02-09T01:25:22.014Z,13.77
2023-02-09T01:27:48.988Z,13.25
2023-02-09T01:30:16.168Z,10.30
2023-02-09T01:32:43.133Z,10.35
2023-02-09T01:35:10.808Z,9.70
2023-02-09T01:37:37.940Z,12.45
2023-02-09T01:40:05.677Z,10.93
2023-02-09T01:42:32.523Z,13.40
2023-02-09T01:45:30.478Z,11.55
2023-02-09T01:48:03.704Z,14.50
2023-02-09T01:50:36.174Z,13.18
2023-02-09T01:55:34.743Z,9.57
2023-02-09T01:58:13.593Z,11.25
2023-02-09T02:00:40.587Z,10.57
2023-02-09T02:03:12.514Z,15.93
2023-02-09T02:05:42.679Z,10.45
2023-02-09T02:08:26.509Z,13.00
2023-02-09T02:10:54.252Z,9.57
2023-02-09T02:13:21.400Z,9.93
2023-02-09T02:16:06.232Z,13.68
2023-02-09T02:18:45.781Z,9.63
2023-02-09T02:21:24.788Z,13.45
2023-02-09T02:24:21.116Z,10.07
2023-02-09T02:26:58.352Z,10.85
2023-02-09T02:29:43.828Z,11.55
2023-02-09T02:32:36.780Z,13.88
2023-02-09T02:35:26.703Z,12.45
2023-02-09T02:38:14.554Z,10.98
2023-02-09T02:41:22.707Z,10.90
2023-02-09T02:44:05.772Z,8.55
2023-02-09T02:46:38.137Z,11.93
2023-02-09T02:51:43.184Z,12.40
2023-02-09T02:54:16.573Z,9.23
2023-02-09T02:56:47.514Z,9.48
2023-02-09T02:59:18.909Z,10.90
2023-02-09T03:02:02.171Z,9.15
2023-02-09T03:04:32.601Z,9.93
2023-02-09T03:06:59.416Z,9.88
2023-02-09T03:09:26.101Z,14.95
2023-02-09T03:11:57.563Z,10.60
2023-02-09T03:14:41.189Z,12.70
2023-02-09T03:17:14.174Z,9.65
2023-02-09T03:19:46.727Z,12.07
2023-02-09T03:22:30.854Z,11.95
2023-02-09T03:25:31.314Z,10.82
2023-02-09T03:28:04.548Z,10.75
2023-02-09T03:30:33.667Z,11.88
2023-02-09T03:33:01.734Z,9.95
2023-02-09T03:35:36.319Z,9.95
2023-02-09T03:38:07.437Z,11.32
2023-02-09T03:40:34.933Z,15.50
2023-02-09T03:43:01.898Z,14.32
2023-02-09T03:45:28.601Z,13.77
2023-02-09T03:47:55.226Z,14.40
2023-02-09T03:50:21.890Z,14.27
2023-02-09T03:52:48.530Z,13.10
2023-02-09T03:55:15.264Z,11.25
2023-02-09T03:57:42.075Z,15.20
2023-02-09T04:00:09.763Z,12.27
2023-02-09T04:02:41.707Z,12.57
2023-02-09T04:05:08.889Z,14.23
2023-02-09T04:07:35.705Z,11.20
2023-02-09T04:10:03.449Z,10.85
2023-02-09T04:12:30.157Z,14.32
2023-02-09T04:14:56.946Z,10.60
2023-02-09T04:17:23.602Z,14.50
2023-02-09T04:19:50.272Z,9.35
2023-02-09T04:22:16.910Z,11.30
2023-02-09T04:24:44.203Z,11.43
2023-02-09T04:27:10.844Z,13.82
2023-02-09T04:29:37.499Z,12.10
2023-02-09T04:32:04.401Z,11.35
2023-02-09T04:34:31.082Z,14.13
2023-02-09T04:36:57.749Z,11.63
2023-02-09T04:39:24.488Z,11.57
2023-02-09T04:41:51.078Z,14.43
2023-02-09T04:44:17.792Z,9.60
2023-02-09T04:46:45.768Z,13.27
2023-02-09T04:49:12.778Z,14.27
2023-02-09T04:51:39.410Z,14.73
2023-02-09T04:54:06.067Z,14.38
2023-02-09T04:56:32.714Z,15.50
2023-02-09T04:59:18.002Z,13.02
2023-02-09T05:01:44.628Z,11.55
2023-02-09T05:04:11.301Z,10.73
2023-02-09T05:06:37.938Z,12.48
2023-02-09T05:09:04.623Z,14.05
2023-02-09T05:11:31.354Z,15.23
2023-02-09T05:13:58.092Z,11.60
2023-02-09T05:16:24.761Z,12.68
2023-02-09T05:18:51.554Z,11.85
2023-02-09T05:21:18.187Z,13.70
2023-02-09T05:23:44.833Z,11.52
2023-02-09T05:26:11.461Z,11.57
2023-02-09T05:28:38.100Z,12.32
2023-02-09T05:31:04.902Z,10.32
2023-02-09T05:33:31.641Z,12.60
2023-02-09T05:35:58.322Z,12.80
2023-02-09T05:38:25.125Z,12.27
2023-02-09T05:40:51.783Z,14.52
2023-02-09T05:43:19.078Z,12.30
2023-02-09T05:45:46.709Z,12.88
2023-02-09T05:48:13.511Z,12.35
2023-02-09T05:50:40.177Z,12.35
2023-02-09T05:53:07.807Z,12.18
2023-02-09T05:55:34.460Z,11.27
2023-02-09T05:58:01.072Z,13.45
2023-02-09T06:00:29.758Z,12.77
2023-02-09T06:02:57.021Z,11.10
2023-02-09T06:05:23.845Z,10.10
2023-02-09T06:07:51.045Z,10.77
2023-02-09T06:10:18.820Z,10.85
2023-02-09T06:12:46.110Z,12.65
2023-02-09T06:15:13.583Z,9.82
2023-02-09T06:17:40.216Z,14.45
2023-02-09T06:20:07.166Z,12.15
2023-02-09T06:22:34.210Z,11.23
2023-02-09T06:25:00.910Z,11.30
2023-02-09T06:27:27.682Z,9.35
2023-02-09T06:29:54.394Z,11.68
2023-02-09T06:32:21.017Z,13.07
2023-02-09T06:34:47.616Z,11.73
2023-02-09T06:37:14.262Z,11.07
2023-02-09T06:39:40.916Z,14.18
2023-02-09T06:42:07.841Z,28.65
2023-02-09T06:44:34.472Z,20.02
2023-02-09T06:47:01.060Z,17.83
2023-02-09T06:49:27.745Z,24.58
2023-02-09T06:51:54.493Z,23.23
2023-02-09T06:54:21.990Z,22.80
2023-02-09T06:56:48.814Z,32.20
2023-02-09T06:59:15.621Z,38.75
2023-02-09T07:01:42.370Z,50.40
2023-02-09T07:04:09.048Z,30.10
2023-02-09T07:06:35.809Z,27.52
2023-02-09T07:09:02.534Z,31.05
2023-02-09T07:11:30.565Z,36.08
2023-02-09T07:13:57.331Z,49.25
2023-02-09T07:16:24.316Z,38.55
2023-02-09T07:18:51.065Z,40.72
2023-02-09T07:21:19.993Z,37.58
2023-02-09T07:23:47.720Z,30.00
2023-02-09T07:26:17.023Z,22.38
2023-02-09T07:28:44.095Z,16.52
2023-02-09T07:31:12.803Z,22.92
2023-02-09T07:33:39.729Z,38.58
2023-02-09T07:36:09.592Z,48.08
2023-02-09T07:38:37.010Z,40.08
2023-02-09T07:41:05.500Z,40.65
2023-02-09T07:43:33.298Z,30.45
2023-02-09T07:46:01.595Z,25.13
2023-02-09T07:48:28.647Z,33.90
2023-02-09T07:50:55.710Z,35.10
2023-02-09T07:53:22.475Z,33.60
2023-02-09T07:55:49.177Z,36.17
2023-02-09T07:58:18.331Z,30.10
2023-02-09T08:00:46.244Z,25.90
2023-02-09T08:03:15.215Z,20.63
2023-02-09T08:05:48.708Z,17.83
2023-02-09T08:08:15.495Z,16.25
2023-02-09T08:10:42.958Z,16.08
2023-02-09T08:13:10.359Z,13.50
2023-02-09T08:15:40.048Z,16.35
2023-02-09T08:18:16.111Z,19.00
2023-02-09T08:20:44.165Z,16.23
2023-02-09T08:23:22.713Z,16.70
2023-02-09T08:25:51.631Z,18.45
2023-02-09T08:28:31.837Z,20.02
2023-02-09T08:31:05.230Z,15.00
2023-02-09T08:33:32.090Z,21.60
2023-02-09T08:35:58.890Z,22.65
2023-02-09T08:38:25.577Z,22.17
2023-02-09T08:40:52.198Z,22.70
2023-02-09T08:43:18.851Z,22.00
2023-02-09T08:45:45.858Z,27.70
2023-02-09T08:48:13.001Z,22.73
2023-02-09T08:50:40.173Z,25.02
2023-02-09T08:53:07.059Z,23.13
2023-02-09T08:55:34.547Z,21.13
2023-02-09T08:58:01.255Z,24.35
2023-02-09T09:00:28.468Z,28.15
2023-02-09T09:02:55.150Z,19.83
2023-02-09T09:05:21.820Z,24.95
2023-02-09T09:07:48.483Z,22.55
2023-02-09T09:10:15.233Z,27.50
2023-02-09T09:12:41.929Z,24.92
2023-02-09T09:15:08.969Z,24.40
2023-02-09T09:17:35.832Z,27.60
2023-02-09T09:20:02.497Z,26.27
2023-02-09T09:22:29.233Z,29.33
2023-02-09T09:24:55.906Z,25.42
2023-02-09T09:27:22.600Z,26.77
2023-02-09T09:29:49.686Z,23.60
2023-02-09T09:32:16.602Z,25.58
2023-02-09T09:34:43.586Z,26.77
2023-02-09T09:37:10.190Z,27.50
2023-02-09T09:39:36.808Z,24.33
2023-02-09T09:42:06.121Z,26.30
2023-02-09T09:44:43.511Z,28.27
2023-02-09T09:47:19.083Z,29.73
2023-02-09T09:49:46.333Z,29.83
2023-02-09T09:52:29.368Z,31.13
2023-02-09T09:54:57.944Z,31.60
2023-02-09T09:57:27.575Z,30.10
2023-02-09T09:59:56.172Z,32.53
2023-02-09T10:02:31.395Z,28.08
2023-02-09T10:05:14.381Z,27.95
2023-02-09T10:07:43.102Z,24.05
2023-02-09T10:10:23.394Z,27.88
2023-02-09T10:12:53.327Z,23.65
2023-02-09T10:15:32.711Z,24.85
2023-02-09T10:18:00.402Z,29.60
2023-02-09T10:20:50.245Z,27.02
2023-02-09T10:23:18.185Z,30.02
2023-02-09T10:25:47.899Z,25.20
2023-02-09T10:28:23.166Z,27.27
2023-02-09T10:30:56.443Z,25.52
2023-02-09T10:33:23.297Z,24.70
2023-02-09T10:35:53.737Z,29.55
2023-02-09T10:38:24.137Z,27.17
2023-02-09T10:40:51.627Z,29.88
2023-02-09T10:43:34.465Z,26.10
2023-02-09T10:46:10.389Z,26.65
2023-02-09T10:48:43.036Z,25.52
2023-02-09T10:51:29.084Z,27.50
2023-02-09T10:53:55.908Z,28.23
2023-02-09T10:56:29.394Z,36.00
2023-02-09T10:59:01.660Z,28.88
2023-02-09T11:01:33.072Z,28.90
2023-02-09T11:04:06.068Z,29.90
2023-02-09T11:06:56.473Z,29.67
2023-02-09T11:09:44.826Z,27.00
2023-02-09T11:12:12.589Z,30.13
2023-02-09T11:14:41.964Z,28.33
2023-02-09T11:17:11.612Z,29.40
2023-02-09T11:19:44.322Z,33.30
2023-02-09T11:22:28.963Z,27.98
2023-02-09T11:25:25.147Z,31.55
2023-02-09T11:28:10.632Z,31.00
2023-02-09T11:31:13.029Z,29.48
2023-02-09T11:33:45.835Z,34.42
2023-02-09T11:36:38.497Z,30.17
2023-02-09T11:39:10.324Z,27.33
2023-02-09T11:42:02.077Z,30.63
2023-02-09T11:44:57.685Z,28.98
2023-02-09T11:47:31.041Z,33.70
2023-02-09T11:50:02.001Z,31.20
2023-02-09T11:52:37.598Z,29.23
2023-02-09T11:55:22.632Z,31.90
2023-02-09T11:57:54.691Z,27.50
2023-02-09T12:00:25.546Z,29.85
2023-02-09T12:05:24.520Z,24.40
2023-02-09T12:08:34.517Z,30.52
2023-02-09T12:11:17.126Z,31.02
2023-02-09T12:16:32.038Z,27.83
2023-02-09T12:18:58.889Z,26.98
2023-02-09T12:21:34.636Z,27.33
2023-02-09T12:24:01.916Z,24.60
2023-02-09T12:26:42.904Z,29.15
2023-02-09T12:29:35.289Z,29.33
2023-02-09T12:32:04.892Z,29.30
2023-02-09T12:34:42.170Z,29.20
2023-02-09T12:37:14.826Z,32.60
2023-02-09T12:40:07.886Z,28.30
2023-02-09T12:42:43.096Z,27.70
2023-02-09T12:45:34.849Z,27.42
2023-02-09T12:48:07.780Z,30.17
2023-02-09T12:50:43.794Z,28.42
2023-02-09T12:53:22.716Z,30.45
2023-02-09T12:56:09.033Z,29.75
2023-02-09T12:58:44.891Z,30.35
2023-02-09T13:01:15.118Z,27.15
2023-02-09T13:03:56.388Z,30.67
2023-02-09T13:06:35.360Z,29.00
2023-02-09T13:09:07.552Z,29.38
2023-02-09T13:12:05.705Z,25.42
2023-02-09T13:14:32.796Z,26.35
2023-02-09T13:17:08.438Z,25.85
2023-02-09T13:19:52.861Z,27.55
2023-02-09T13:22:41.034Z,25.92
2023-02-09T13:25:33.452Z,23.95
2023-02-09T13:28:27.524Z,39.92
2023-02-09T13:30:54.243Z,37.03
2023-02-09T13:33:30.799Z,35.30
2023-02-09T13:36:00.506Z,34.28
2023-02-09T13:38:31.316Z,42.08
2023-02-09T13:40:58.521Z,34.05
2023-02-09T13:43:34.837Z,40.65
2023-02-09T13:46:02.520Z,40.90
2023-02-09T13:48:36.637Z,35.00
2023-02-09T13:51:15.822Z,40.08
2023-02-09T13:53:56.358Z,42.17
2023-02-09T13:56:23.644Z,35.67
2023-02-09T13:58:50.789Z,40.28
2023-02-09T14:01:26.399Z,41.58
2023-02-09T14:04:17.472Z,42.70
2023-02-09T14:06:58.334Z,40.85
2023-02-09T14:09:39.018Z,37.22
2023-02-09T14:12:15.367Z,39.28
2023-02-09T14:15:07.907Z,42.13
2023-02-09T14:17:35.360Z,38.22
2023-02-09T14:20:03.319Z,37.90
2023-02-09T14:22:33.635Z,40.22
2023-02-09T14:25:00.528Z,37.78
2023-02-09T14:27:29.600Z,40.88
2023-02-09T14:29:56.670Z,41.40
2023-02-09T14:32:45.341Z,44.25
2023-02-09T14:35:19.910Z,40.10
2023-02-09T14:37:48.590Z,45.92
2023-02-09T14:40:23.371Z,41.70
2023-02-09T14:43:00.555Z,41.42
2023-02-09T14:45:27.207Z,43.20
2023-02-09T14:47:53.901Z,42.17
2023-02-09T14:50:23.588Z,40.90
2023-02-09T14:52:54.406Z,53.35
2023-02-09T14:55:25.549Z,43.78
2023-02-09T14:57:52.407Z,45.63
2023-02-09T15:00:22.433Z,43.42
2023-02-09T15:02:50.432Z,41.15
2023-02-09T15:05:17.936Z,35.00
2023-02-09T15:07:48.192Z,36.00
2023-02-09T15:10:32.375Z,28.48
2023-02-09T15:13:00.529Z,28.42
2023-02-09T15:15:27.282Z,25.70
2023-02-09T15:17:55.331Z,25.83
2023-02-09T15:20:26.438Z,30.23
2023-02-09T15:22:54.679Z,25.95
2023-02-09T15:25:22.644Z,26.17
2023-02-09T15:27:57.479Z,25.50
2023-02-09T15:30:27.634Z,24.67
2023-02-09T15:32:54.356Z,25.13
2023-02-09T15:35:25.786Z,31.50
2023-02-09T15:38:00.340Z,26.45
2023-02-09T15:40:52.576Z,24.92
2023-02-09T15:43:39.954Z,22.98
2023-02-09T15:46:27.468Z,23.70
2023-02-09T15:48:54.423Z,25.23
2023-02-09T15:51:23.406Z,22.60
2023-02-09T15:53:50.108Z,28.92
2023-02-09T15:56:16.735Z,28.25
2023-02-09T15:58:45.390Z,23.17
2023-02-09T16:01:14.997Z,23.92
2023-02-09T16:03:41.636Z,25.80
2023-02-09T16:06:15.959Z,28.60
2023-02-09T16:08:43.539Z,27.52
2023-02-09T16:11:24.247Z,27.85
2023-02-09T16:13:51.233Z,22.33
2023-02-09T16:16:18.112Z,27.17
2023-02-09T16:18:46.748Z,22.23
2023-02-09T16:21:23.556Z,24.52
2023-02-09T16:23:52.571Z,25.05
2023-02-09T16:26:19.922Z,23.55
2023-02-09T16:28:47.447Z,26.42
2023-02-09T16:31:14.307Z,28.77
2023-02-09T16:33:43.000Z,31.70
2023-02-09T16:36:28.373Z,33.65
2023-02-09T16:38:55.038Z,28.35
2023-02-09T16:41:40.514Z,31.27
2023-02-09T16:44:33.645Z,26.23
2023-02-09T16:47:01.386Z,26.63
2023-02-09T16:49:31.165Z,29.25
2023-02-09T16:52:01.057Z,34.83
2023-02-09T16:54:29.660Z,35.25
2023-02-09T16:56:56.645Z,47.33
2023-02-09T16:59:23.534Z,36.72
2023-02-09T17:01:50.387Z,30.10
2023-02-09T17:04:17.370Z,34.20
2023-02-09T17:06:45.225Z,31.02
2023-02-09T17:09:16.200Z,32.25
2023-02-09T17:11:42.895Z,28.90
2023-02-09T17:14:09.649Z,27.80
2023-02-09T17:16:38.683Z,31.83
2023-02-09T17:19:12.353Z,38.25
2023-02-09T17:21:40.287Z,37.25
2023-02-09T17:24:14.237Z,32.63
2023-02-09T17:26:40.925Z,39.58
2023-02-09T17:29:09.243Z,36.13
2023-02-09T17:31:51.943Z,27.92
2023-02-09T17:34:20.649Z,26.17
2023-02-09T17:36:47.435Z,28.17
2023-02-09T17:39:14.204Z,53.72
2023-02-09T17:41:46.500Z,37.50
2023-02-09T17:44:39.166Z,29.92
2023-02-09T17:47:17.683Z,33.70
2023-02-09T17:49:44.728Z,33.83
2023-02-09T17:52:19.250Z,36.72
2023-02-09T17:54:46.575Z,41.88
2023-02-09T17:57:17.380Z,40.80
2023-02-09T17:59:44.105Z,45.92
2023-02-09T18:02:15.856Z,41.50
2023-02-09T18:04:42.908Z,41.50
2023-02-09T18:07:10.452Z,40.30
2023-02-09T18:09:37.249Z,44.72
2023-02-09T18:12:13.655Z,54.75
2023-02-09T18:14:40.315Z,49.65
2023-02-09T18:17:06.974Z,51.53
2023-02-09T18:19:33.675Z,40.17
2023-02-09T18:22:02.044Z,43.63
2023-02-09T18:24:32.077Z,42.38
2023-02-09T18:26:59.368Z,38.92
2023-02-09T18:29:29.458Z,30.90
2023-02-09T18:31:58.554Z,32.83
2023-02-09T18:34:26.047Z,37.65
2023-02-09T18:36:52.658Z,60.97
2023-02-09T18:39:19.342Z,47.55
2023-02-09T18:41:48.395Z,39.90
2023-02-09T18:44:15.022Z,37.53
2023-02-09T18:46:42.786Z,39.60
2023-02-09T18:49:12.237Z,47.70
2023-02-09T18:51:38.926Z,37.55
2023-02-09T18:54:05.782Z,40.60
2023-02-09T18:56:32.612Z,37.28
2023-02-09T18:58:59.257Z,37.00
2023-02-09T19:01:26.033Z,45.17
2023-02-09T19:03:54.203Z,46.45
2023-02-09T19:06:21.955Z,42.85
2023-02-09T19:08:50.451Z,47.47
2023-02-09T19:11:19.954Z,44.60
2023-02-09T19:14:06.731Z,36.28
2023-02-09T19:16:34.092Z,45.25
2023-02-09T19:19:00.882Z,44.47
2023-02-09T19:21:28.244Z,41.78
2023-02-09T19:23:54.931Z,40.00
2023-02-09T19:26:21.588Z,40.33
2023-02-09T19:28:48.691Z,45.85
2023-02-09T19:31:18.374Z,39.50
2023-02-09T19:33:45.142Z,36.45
2023-02-09T19:36:12.398Z,38.72
2023-02-09T19:38:39.018Z,38.75
2023-02-09T19:41:12.506Z,36.00
2023-02-09T19:43:42.390Z,37.90
2023-02-09T19:46:10.305Z,36.20
2023-02-09T19:48:40.301Z,35.17
2023-02-09T19:51:07.805Z,32.90
2023-02-09T19:53:35.161Z,31.20
2023-02-09T19:56:02.337Z,37.47
2023-02-09T19:58:29.156Z,29.42
2023-02-09T20:00:56.194Z,33.45
2023-02-09T20:03:24.183Z,36.92
2023-02-09T20:05:51.469Z,33.45
2023-02-09T20:08:19.907Z,31.08
2023-02-09T20:10:47.155Z,36.15
2023-02-09T20:13:15.293Z,34.38
2023-02-09T20:15:43.695Z,28.08
2023-02-09T20:18:12.054Z,29.02
2023-02-09T20:20:41.454Z,28.17
2023-02-09T20:23:08.563Z,26.48
2023-02-09T20:25:35.282Z,36.75
2023-02-09T20:28:01.989Z,29.48
2023-02-09T20:30:28.631Z,30.35
2023-02-09T20:32:55.255Z,29.48
2023-02-09T20:35:21.993Z,31.83
2023-02-09T20:37:48.649Z,31.85
2023-02-09T20:40:15.473Z,29.08
2023-02-09T20:43:00.822Z,32.35
2023-02-09T20:45:46.162Z,28.70
2023-02-09T20:48:13.817Z,27.10
2023-02-09T20:50:40.511Z,32.95
2023-02-09T20:53:07.200Z,27.92
2023-02-09T20:55:34.012Z,26.58
2023-02-09T20:58:00.709Z,31.25
2023-02-09T21:00:27.770Z,28.92
2023-02-09T21:02:54.470Z,28.73
2023-02-09T21:05:21.141Z,26.98
2023-02-09T21:07:50.340Z,33.25
2023-02-09T21:10:17.025Z,34.60
2023-02-09T21:12:43.765Z,29.25
2023-02-09T21:15:10.398Z,36.15
2023-02-09T21:17:37.197Z,32.63
2023-02-09T21:20:06.015Z,40.05
2023-02-09T21:22:32.689Z,40.33
2023-02-09T21:24:59.439Z,41.83
2023-02-09T21:27:26.278Z,37.17
2023-02-09T21:29:53.025Z,37.95
2023-02-09T21:32:19.748Z,29.95
2023-02-09T21:34:46.809Z,30.85
2023-02-09T21:37:14.108Z,30.15
2023-02-09T21:39:41.355Z,36.25
2023-02-09T21:42:28.807Z,32.30
2023-02-09T21:44:55.816Z,28.92
2023-02-09T21:47:30.589Z,32.63
2023-02-09T21:49:57.566Z,31.63
2023-02-09T21:52:24.794Z,29.08
2023-02-09T21:54:52.113Z,30.85
2023-02-09T21:57:18.863Z,31.77
2023-02-09T21:59:45.793Z,32.42
2023-02-09T22:02:17.728Z,34.95
2023-02-09T22:04:45.756Z,34.83
2023-02-09T22:07:13.506Z,41.55
2023-02-09T22:09:40.824Z,38.15
2023-02-09T22:12:07.859Z,36.05
2023-02-09T22:14:34.609Z,36.60
2023-02-09T22:17:01.353Z,41.95
2023-02-09T22:19:28.186Z,36.17
2023-02-09T22:21:57.689Z,35.78
2023-02-09T22:24:24.988Z,38.88
2023-02-09T22:26:51.648Z,36.30
2023-02-09T22:29:18.786Z,33.97
2023-02-09T22:31:45.818Z,33.00
2023-02-09T22:34:12.919Z,39.90
2023-02-09T22:36:39.903Z,27.80
2023-02-09T22:39:07.617Z,30.50
2023-02-09T22:41:35.081Z,32.75
2023-02-09T22:44:07.304Z,27.70
2023-02-09T22:46:39.103Z,25.52
2023-02-09T22:49:15.564Z,28.40
2023-02-09T22:51:42.379Z,34.03
2023-02-09T22:54:09.721Z,32.72
2023-02-09T22:56:36.510Z,32.78
2023-02-09T22:59:03.558Z,36.10
2023-02-09T23:01:30.543Z,43.22
2023-02-09T23:03:57.712Z,42.55
2023-02-09T23:06:27.421Z,37.65
2023-02-09T23:08:56.101Z,35.63
2023-02-09T23:11:23.364Z,28.48
2023-02-09T23:14:00.456Z,29.25
2023-02-09T23:16:33.993Z,27.45
2023-02-09T23:19:06.402Z,29.05
2023-02-09T23:21:36.485Z,28.83
2023-02-09T23:24:03.716Z,31.17
2023-02-09T23:26:30.409Z,28.75
2023-02-09T23:28:59.548Z,26.33
2023-02-09T23:31:27.048Z,29.85
2023-02-09T23:33:54.219Z,27.42
2023-02-09T23:36:25.820Z,27.48
2023-02-09T23:38:54.785Z,31.37
2023-02-09T23:41:22.489Z,35.80
2023-02-09T23:43:49.887Z,26.58
2023-02-09T23:46:19.705Z,28.40
2023-02-09T23:48:46.941Z,28.45
2023-02-09T23:51:18.349Z,31.98
2023-02-09T23:53:46.650Z,24.23
2023-02-09T23:56:16.053Z,29.33
2023-02-09T23:58:45.928Z,27.98
